sensor_id;sensor_type;location;lat;lon;timestamp;temperature;humidity
22771;DHT22;11552;50.786;4.332;2022-10-22T00:01:15;16.00;99.90
22771;DHT22;11552;50.786;4.332;2022-10-22T00:03:41;16.00;99.90
22771;DHT22;11552;50.786;4.332;2022-10-22T00:06:06;16.00;99.90
22771;DHT22;11552;50.786;4.332;2022-10-22T00:08:32;15.90;99.90
22771;DHT22;11552;50.786;4.332;2022-10-22T00:10:58;16.00;99.90
22771;DHT22;11552;50.786;4.332;2022-10-22T00:13:24;16.00;99.90
22771;DHT22;11552;50.786;4.332;2022-10-22T00:16:40;16.00;99.90
22771;DHT22;11552;50.786;4.332;2022-10-22T00:19:06;16.30;99.90
22771;DHT22;11552;50.786;4.332;2022-10-22T00:21:34;16.20;99.90
22771;DHT22;11552;50.786;4.332;2022-10-22T00:29:10;16.10;99.90
22771;DHT22;11552;50.786;4.332;2022-10-22T00:31:35;16.20;99.90
22771;DHT22;11552;50.786;4.332;2022-10-22T00:34:01;16.10;99.90
22771;DHT22;11552;50.786;4.332;2022-10-22T00:36:27;16.00;99.90
22771;DHT22;11552;50.786;4.332;2022-10-22T00:38:53;16.00;99.90
22771;DHT22;11552;50.786;4.332;2022-10-22T00:41:19;16.00;99.90
22771;DHT22;11552;50.786;4.332;2022-10-22T00:45:07;16.10;99.90
22771;DHT22;11552;50.786;4.332;2022-10-22T00:48:10;16.00;99.90
22771;DHT22;11552;50.786;4.332;2022-10-22T00:51:40;16.10;99.90
22771;DHT22;11552;50.786;4.332;2022-10-22T00:54:07;16.10;99.90
22771;DHT22;11552;50.786;4.332;2022-10-22T00:56:33;16.20;99.90
22771;DHT22;11552;50.786;4.332;2022-10-22T00:58:59;16.10;99.90
22771;DHT22;11552;50.786;4.332;2022-10-22T01:01:29;16.00;99.90
22771;DHT22;11552;50.786;4.332;2022-10-22T01:03:55;16.00;99.90
22771;DHT22;11552;50.786;4.332;2022-10-22T01:06:27;16.00;99.90
22771;DHT22;11552;50.786;4.332;2022-10-22T01:19:58;16.00;99.90
22771;DHT22;11552;50.786;4.332;2022-10-22T01:30:36;15.80;99.90
22771;DHT22;11552;50.786;4.332;2022-10-22T01:33:05;15.90;99.90
22771;DHT22;11552;50.786;4.332;2022-10-22T01:35:36;15.90;99.90
22771;DHT22;11552;50.786;4.332;2022-10-22T01:38:05;15.90;99.90
22771;DHT22;11552;50.786;4.332;2022-10-22T01:40:33;15.80;99.90
22771;DHT22;11552;50.786;4.332;2022-10-22T01:43:02;15.70;99.90
22771;DHT22;11552;50.786;4.332;2022-10-22T01:45:35;15.70;99.90
22771;DHT22;11552;50.786;4.332;2022-10-22T02:02:43;15.60;99.90
22771;DHT22;11552;50.786;4.332;2022-10-22T02:05:13;15.60;99.90
22771;DHT22;11552;50.786;4.332;2022-10-22T02:07:48;15.50;99.90
22771;DHT22;11552;50.786;4.332;2022-10-22T02:10:15;15.60;99.90
22771;DHT22;11552;50.786;4.332;2022-10-22T02:12:43;15.50;99.90
22771;DHT22;11552;50.786;4.332;2022-10-22T02:15:10;15.50;99.90
22771;DHT22;11552;50.786;4.332;2022-10-22T02:18:51;15.50;99.90
22771;DHT22;11552;50.786;4.332;2022-10-22T02:21:18;15.50;99.90
22771;DHT22;11552;50.786;4.332;2022-10-22T02:23:44;15.50;99.90
22771;DHT22;11552;50.786;4.332;2022-10-22T02:26:27;15.50;99.90
22771;DHT22;11552;50.786;4.332;2022-10-22T02:30:54;15.50;99.90
22771;DHT22;11552;50.786;4.332;2022-10-22T02:33:25;15.70;99.90
22771;DHT22;11552;50.786;4.332;2022-10-22T02:35:52;15.60;99.90
22771;DHT22;11552;50.786;4.332;2022-10-22T02:38:20;15.60;99.90
22771;DHT22;11552;50.786;4.332;2022-10-22T02:40:47;15.60;99.90
22771;DHT22;11552;50.786;4.332;2022-10-22T02:46:02;15.60;99.90
22771;DHT22;11552;50.786;4.332;2022-10-22T02:48:28;15.60;99.90
22771;DHT22;11552;50.786;4.332;2022-10-22T02:52:46;15.60;99.90
22771;DHT22;11552;50.786;4.332;2022-10-22T02:55:11;15.40;99.90
22771;DHT22;11552;50.786;4.332;2022-10-22T02:59:46;15.50;99.90
22771;DHT22;11552;50.786;4.332;2022-10-22T03:05:50;15.40;99.90
22771;DHT22;11552;50.786;4.332;2022-10-22T03:08:16;15.40;99.90
22771;DHT22;11552;50.786;4.332;2022-10-22T03:10:42;15.30;99.90
22771;DHT22;11552;50.786;4.332;2022-10-22T03:13:08;15.30;99.90
22771;DHT22;11552;50.786;4.332;2022-10-22T03:15:33;15.50;99.90
22771;DHT22;11552;50.786;4.332;2022-10-22T03:17:59;15.50;99.90
22771;DHT22;11552;50.786;4.332;2022-10-22T03:20:25;15.40;99.90
22771;DHT22;11552;50.786;4.332;2022-10-22T03:22:51;15.40;99.90
22771;DHT22;11552;50.786;4.332;2022-10-22T03:25:20;15.30;99.90
22771;DHT22;11552;50.786;4.332;2022-10-22T03:27:47;15.30;99.90
22771;DHT22;11552;50.786;4.332;2022-10-22T03:30:13;15.30;99.90
22771;DHT22;11552;50.786;4.332;2022-10-22T03:32:39;15.50;99.90
22771;DHT22;11552;50.786;4.332;2022-10-22T03:35:05;15.50;99.90
22771;DHT22;11552;50.786;4.332;2022-10-22T03:40:09;15.50;99.90
22771;DHT22;11552;50.786;4.332;2022-10-22T03:42:35;15.50;99.90
22771;DHT22;11552;50.786;4.332;2022-10-22T03:45:01;15.50;99.90
22771;DHT22;11552;50.786;4.332;2022-10-22T03:47:45;15.60;99.90
22771;DHT22;11552;50.786;4.332;2022-10-22T03:50:10;15.60;99.90
22771;DHT22;11552;50.786;4.332;2022-10-22T03:52:37;15.60;99.90
22771;DHT22;11552;50.786;4.332;2022-10-22T03:55:05;15.70;99.90
22771;DHT22;11552;50.786;4.332;2022-10-22T03:57:31;15.70;99.90
22771;DHT22;11552;50.786;4.332;2022-10-22T03:59:56;15.70;99.90
22771;DHT22;11552;50.786;4.332;2022-10-22T04:02:22;15.70;99.90
22771;DHT22;11552;50.786;4.332;2022-10-22T04:04:48;15.70;99.90
22771;DHT22;11552;50.786;4.332;2022-10-22T04:07:13;15.50;99.90
22771;DHT22;11552;50.786;4.332;2022-10-22T04:09:39;15.40;99.90
22771;DHT22;11552;50.786;4.332;2022-10-22T04:12:05;15.40;99.90
22771;DHT22;11552;50.786;4.332;2022-10-22T04:14:32;15.50;99.90
22771;DHT22;11552;50.786;4.332;2022-10-22T04:16:57;15.40;99.90
22771;DHT22;11552;50.786;4.332;2022-10-22T04:19:23;15.30;99.90
22771;DHT22;11552;50.786;4.332;2022-10-22T04:21:49;15.30;99.90
22771;DHT22;11552;50.786;4.332;2022-10-22T04:25:44;15.20;99.90
22771;DHT22;11552;50.786;4.332;2022-10-22T04:28:09;15.20;99.90
22771;DHT22;11552;50.786;4.332;2022-10-22T04:30:35;15.20;99.90
22771;DHT22;11552;50.786;4.332;2022-10-22T04:33:02;15.20;99.90
22771;DHT22;11552;50.786;4.332;2022-10-22T04:35:28;15.20;99.90
22771;DHT22;11552;50.786;4.332;2022-10-22T04:37:54;15.30;99.90
22771;DHT22;11552;50.786;4.332;2022-10-22T04:40:20;15.30;99.90
22771;DHT22;11552;50.786;4.332;2022-10-22T04:42:46;15.30;99.90
22771;DHT22;11552;50.786;4.332;2022-10-22T04:45:11;15.50;99.90
22771;DHT22;11552;50.786;4.332;2022-10-22T04:47:37;15.50;99.90
22771;DHT22;11552;50.786;4.332;2022-10-22T04:51:46;15.50;99.90
22771;DHT22;11552;50.786;4.332;2022-10-22T04:54:11;15.60;99.90
22771;DHT22;11552;50.786;4.332;2022-10-22T04:56:37;15.70;99.90
22771;DHT22;11552;50.786;4.332;2022-10-22T04:59:06;15.70;99.90
22771;DHT22;11552;50.786;4.332;2022-10-22T05:01:39;15.80;99.90
22771;DHT22;11552;50.786;4.332;2022-10-22T05:04:06;15.80;99.90
22771;DHT22;11552;50.786;4.332;2022-10-22T05:06:34;15.80;99.90
22771;DHT22;11552;50.786;4.332;2022-10-22T05:09:12;15.90;99.90
22771;DHT22;11552;50.786;4.332;2022-10-22T05:11:39;15.80;99.90
22771;DHT22;11552;50.786;4.332;2022-10-22T05:14:07;15.80;99.90
22771;DHT22;11552;50.786;4.332;2022-10-22T05:16:34;15.80;99.90
22771;DHT22;11552;50.786;4.332;2022-10-22T05:19:00;15.70;99.90
22771;DHT22;11552;50.786;4.332;2022-10-22T05:22:23;15.80;99.90
22771;DHT22;11552;50.786;4.332;2022-10-22T05:24:49;15.80;99.90
22771;DHT22;11552;50.786;4.332;2022-10-22T05:27:14;15.80;99.90
22771;DHT22;11552;50.786;4.332;2022-10-22T05:29:40;15.90;99.90
22771;DHT22;11552;50.786;4.332;2022-10-22T05:32:06;16.00;99.90
22771;DHT22;11552;50.786;4.332;2022-10-22T05:34:31;16.10;99.90
22771;DHT22;11552;50.786;4.332;2022-10-22T05:36:57;16.10;99.90
22771;DHT22;11552;50.786;4.332;2022-10-22T05:39:23;16.10;99.90
22771;DHT22;11552;50.786;4.332;2022-10-22T05:41:49;16.10;99.90
22771;DHT22;11552;50.786;4.332;2022-10-22T05:44:14;16.10;99.90
22771;DHT22;11552;50.786;4.332;2022-10-22T05:46:40;16.10;99.90
22771;DHT22;11552;50.786;4.332;2022-10-22T05:49:11;16.10;99.90
22771;DHT22;11552;50.786;4.332;2022-10-22T05:51:36;16.00;99.90
22771;DHT22;11552;50.786;4.332;2022-10-22T05:54:04;16.10;99.90
22771;DHT22;11552;50.786;4.332;2022-10-22T05:56:31;16.10;99.90
22771;DHT22;11552;50.786;4.332;2022-10-22T05:58:57;16.10;99.90
22771;DHT22;11552;50.786;4.332;2022-10-22T06:01:28;16.00;99.90
22771;DHT22;11552;50.786;4.332;2022-10-22T06:03:55;16.00;99.90
22771;DHT22;11552;50.786;4.332;2022-10-22T06:11:36;16.00;99.90
22771;DHT22;11552;50.786;4.332;2022-10-22T06:14:02;15.90;99.90
22771;DHT22;11552;50.786;4.332;2022-10-22T06:16:29;15.90;99.90
22771;DHT22;11552;50.786;4.332;2022-10-22T06:18:54;15.90;99.90
22771;DHT22;11552;50.786;4.332;2022-10-22T06:21:20;15.80;99.90
22771;DHT22;11552;50.786;4.332;2022-10-22T06:26:16;15.90;99.90
22771;DHT22;11552;50.786;4.332;2022-10-22T06:31:09;15.80;99.90
22771;DHT22;11552;50.786;4.332;2022-10-22T06:33:35;15.90;99.90
22771;DHT22;11552;50.786;4.332;2022-10-22T06:36:12;15.90;99.90
22771;DHT22;11552;50.786;4.332;2022-10-22T06:38:39;15.90;99.90
22771;DHT22;11552;50.786;4.332;2022-10-22T06:41:10;15.80;99.90
22771;DHT22;11552;50.786;4.332;2022-10-22T06:46:08;15.80;99.90
22771;DHT22;11552;50.786;4.332;2022-10-22T06:48:34;15.80;99.90
22771;DHT22;11552;50.786;4.332;2022-10-22T06:51:04;15.80;99.90
22771;DHT22;11552;50.786;4.332;2022-10-22T06:53:30;15.70;99.90
22771;DHT22;11552;50.786;4.332;2022-10-22T06:55:56;15.70;99.90
22771;DHT22;11552;50.786;4.332;2022-10-22T06:58:21;15.70;99.90
22771;DHT22;11552;50.786;4.332;2022-10-22T07:00:47;15.70;99.90
22771;DHT22;11552;50.786;4.332;2022-10-22T07:03:13;15.80;99.90
22771;DHT22;11552;50.786;4.332;2022-10-22T07:05:39;15.80;99.90
22771;DHT22;11552;50.786;4.332;2022-10-22T07:08:05;15.80;99.90
22771;DHT22;11552;50.786;4.332;2022-10-22T07:10:31;15.90;99.90
22771;DHT22;11552;50.786;4.332;2022-10-22T07:12:57;15.90;99.90
22771;DHT22;11552;50.786;4.332;2022-10-22T07:15:23;16.00;99.90
22771;DHT22;11552;50.786;4.332;2022-10-22T07:17:49;16.00;99.90
22771;DHT22;11552;50.786;4.332;2022-10-22T07:20:17;16.10;99.90
22771;DHT22;11552;50.786;4.332;2022-10-22T07:22:43;16.10;99.90
22771;DHT22;11552;50.786;4.332;2022-10-22T07:25:09;16.20;99.90
22771;DHT22;11552;50.786;4.332;2022-10-22T07:27:35;16.30;99.90
22771;DHT22;11552;50.786;4.332;2022-10-22T07:30:39;16.30;99.90
22771;DHT22;11552;50.786;4.332;2022-10-22T07:33:05;16.30;99.90
22771;DHT22;11552;50.786;4.332;2022-10-22T07:35:31;16.40;99.90
22771;DHT22;11552;50.786;4.332;2022-10-22T07:37:57;16.60;99.90
22771;DHT22;11552;50.786;4.332;2022-10-22T07:40:22;16.60;99.90
22771;DHT22;11552;50.786;4.332;2022-10-22T07:42:48;16.70;99.90
22771;DHT22;11552;50.786;4.332;2022-10-22T07:45:13;16.80;99.90
22771;DHT22;11552;50.786;4.332;2022-10-22T07:47:39;16.80;99.90
22771;DHT22;11552;50.786;4.332;2022-10-22T07:50:05;16.90;99.90
22771;DHT22;11552;50.786;4.332;2022-10-22T07:54:31;16.90;99.90
22771;DHT22;11552;50.786;4.332;2022-10-22T07:56:57;17.00;99.90
22771;DHT22;11552;50.786;4.332;2022-10-22T07:59:23;17.10;99.90
22771;DHT22;11552;50.786;4.332;2022-10-22T08:01:48;17.20;99.90
22771;DHT22;11552;50.786;4.332;2022-10-22T08:04:14;17.30;99.90
22771;DHT22;11552;50.786;4.332;2022-10-22T08:06:40;17.20;99.90
22771;DHT22;11552;50.786;4.332;2022-10-22T08:09:05;17.40;99.90
22771;DHT22;11552;50.786;4.332;2022-10-22T08:11:31;17.50;99.90
22771;DHT22;11552;50.786;4.332;2022-10-22T08:13:58;17.70;99.90
22771;DHT22;11552;50.786;4.332;2022-10-22T08:16:24;17.70;99.90
22771;DHT22;11552;50.786;4.332;2022-10-22T08:21:06;17.60;99.90
22771;DHT22;11552;50.786;4.332;2022-10-22T08:23:31;17.50;99.90
22771;DHT22;11552;50.786;4.332;2022-10-22T08:25:58;17.30;99.90
22771;DHT22;11552;50.786;4.332;2022-10-22T08:28:24;17.40;99.90
22771;DHT22;11552;50.786;4.332;2022-10-22T08:30:50;17.50;99.90
22771;DHT22;11552;50.786;4.332;2022-10-22T08:33:16;17.50;99.90
22771;DHT22;11552;50.786;4.332;2022-10-22T08:35:47;17.30;99.90
22771;DHT22;11552;50.786;4.332;2022-10-22T08:38:12;17.20;99.90
22771;DHT22;11552;50.786;4.332;2022-10-22T08:40:39;17.10;99.90
22771;DHT22;11552;50.786;4.332;2022-10-22T08:45:40;17.40;99.90
22771;DHT22;11552;50.786;4.332;2022-10-22T08:50:46;17.50;99.90
22771;DHT22;11552;50.786;4.332;2022-10-22T08:53:16;17.40;99.90
22771;DHT22;11552;50.786;4.332;2022-10-22T08:55:43;17.40;99.90
22771;DHT22;11552;50.786;4.332;2022-10-22T09:06:16;19.30;99.90
22771;DHT22;11552;50.786;4.332;2022-10-22T09:08:44;20.50;99.90
22771;DHT22;11552;50.786;4.332;2022-10-22T09:11:25;20.50;99.90
22771;DHT22;11552;50.786;4.332;2022-10-22T09:13:52;20.20;99.90
22771;DHT22;11552;50.786;4.332;2022-10-22T09:16:47;20.10;99.90
22771;DHT22;11552;50.786;4.332;2022-10-22T09:24:39;19.20;99.90
22771;DHT22;11552;50.786;4.332;2022-10-22T09:27:18;18.70;99.90
22771;DHT22;11552;50.786;4.332;2022-10-22T09:32:00;18.50;99.90
22771;DHT22;11552;50.786;4.332;2022-10-22T09:34:28;18.70;99.90
22771;DHT22;11552;50.786;4.332;2022-10-22T09:37:16;18.60;99.90
22771;DHT22;11552;50.786;4.332;2022-10-22T09:39:50;18.50;99.90
22771;DHT22;11552;50.786;4.332;2022-10-22T09:42:17;18.50;99.90
22771;DHT22;11552;50.786;4.332;2022-10-22T09:44:51;18.50;99.90
22771;DHT22;11552;50.786;4.332;2022-10-22T09:47:33;18.40;99.90
22771;DHT22;11552;50.786;4.332;2022-10-22T09:50:25;18.40;99.90
22771;DHT22;11552;50.786;4.332;2022-10-22T09:53:12;19.00;99.90
22771;DHT22;11552;50.786;4.332;2022-10-22T09:55:40;19.40;99.90
22771;DHT22;11552;50.786;4.332;2022-10-22T09:58:13;19.20;99.90
22771;DHT22;11552;50.786;4.332;2022-10-22T10:01:34;19.20;99.90
22771;DHT22;11552;50.786;4.332;2022-10-22T10:04:09;19.10;99.90
22771;DHT22;11552;50.786;4.332;2022-10-22T10:06:36;19.30;99.90
22771;DHT22;11552;50.786;4.332;2022-10-22T10:11:45;19.10;99.90
22771;DHT22;11552;50.786;4.332;2022-10-22T10:14:33;19.00;99.90
22771;DHT22;11552;50.786;4.332;2022-10-22T10:17:26;18.70;99.90
22771;DHT22;11552;50.786;4.332;2022-10-22T10:30:51;18.60;99.90
22771;DHT22;11552;50.786;4.332;2022-10-22T10:36:28;18.50;99.90
22771;DHT22;11552;50.786;4.332;2022-10-22T10:39:23;18.80;99.90
22771;DHT22;11552;50.786;4.332;2022-10-22T10:59:01;19.00;99.90
22771;DHT22;11552;50.786;4.332;2022-10-22T11:06:31;19.20;99.90
22771;DHT22;11552;50.786;4.332;2022-10-22T11:09:23;19.50;99.90
22771;DHT22;11552;50.786;4.332;2022-10-22T11:11:52;19.40;99.90
22771;DHT22;11552;50.786;4.332;2022-10-22T11:14:31;19.20;99.90
22771;DHT22;11552;50.786;4.332;2022-10-22T11:17:17;19.30;99.90
22771;DHT22;11552;50.786;4.332;2022-10-22T11:19:52;19.20;99.90
22771;DHT22;11552;50.786;4.332;2022-10-22T11:24:59;19.40;99.90
22771;DHT22;11552;50.786;4.332;2022-10-22T11:27:38;19.60;99.90
22771;DHT22;11552;50.786;4.332;2022-10-22T11:30:45;19.80;99.90
22771;DHT22;11552;50.786;4.332;2022-10-22T11:33:41;19.80;99.90
22771;DHT22;11552;50.786;4.332;2022-10-22T11:36:09;19.90;99.90
22771;DHT22;11552;50.786;4.332;2022-10-22T11:38:36;19.90;99.90
22771;DHT22;11552;50.786;4.332;2022-10-22T11:41:08;20.10;99.90
22771;DHT22;11552;50.786;4.332;2022-10-22T11:44:04;20.30;99.90
22771;DHT22;11552;50.786;4.332;2022-10-22T11:46:45;20.30;99.90
22771;DHT22;11552;50.786;4.332;2022-10-22T11:51:41;20.50;99.90
22771;DHT22;11552;50.786;4.332;2022-10-22T11:54:38;20.60;99.90
22771;DHT22;11552;50.786;4.332;2022-10-22T11:57:19;20.90;99.90
22771;DHT22;11552;50.786;4.332;2022-10-22T12:02:44;21.50;99.90
22771;DHT22;11552;50.786;4.332;2022-10-22T12:08:21;21.20;99.90
22771;DHT22;11552;50.786;4.332;2022-10-22T12:10:56;20.90;99.90
22771;DHT22;11552;50.786;4.332;2022-10-22T12:13:27;20.90;99.90
22771;DHT22;11552;50.786;4.332;2022-10-22T12:15:58;20.80;99.90
22771;DHT22;11552;50.786;4.332;2022-10-22T12:18:39;20.70;99.90
22771;DHT22;11552;50.786;4.332;2022-10-22T12:21:07;20.70;99.90
22771;DHT22;11552;50.786;4.332;2022-10-22T12:25:44;20.70;99.90
22771;DHT22;11552;50.786;4.332;2022-10-22T12:28:11;20.60;99.90
22771;DHT22;11552;50.786;4.332;2022-10-22T12:30:37;20.70;99.90
22771;DHT22;11552;50.786;4.332;2022-10-22T12:33:05;20.90;99.90
22771;DHT22;11552;50.786;4.332;2022-10-22T12:35:44;21.00;99.90
22771;DHT22;11552;50.786;4.332;2022-10-22T12:38:37;20.70;99.90
22771;DHT22;11552;50.786;4.332;2022-10-22T12:41:07;20.70;99.90
22771;DHT22;11552;50.786;4.332;2022-10-22T12:46:02;20.80;99.90
22771;DHT22;11552;50.786;4.332;2022-10-22T12:48:31;20.80;99.90
22771;DHT22;11552;50.786;4.332;2022-10-22T12:51:02;20.80;99.90
22771;DHT22;11552;50.786;4.332;2022-10-22T12:53:38;20.90;99.90
22771;DHT22;11552;50.786;4.332;2022-10-22T12:56:11;21.00;99.90
22771;DHT22;11552;50.786;4.332;2022-10-22T13:03:05;21.30;99.90
22771;DHT22;11552;50.786;4.332;2022-10-22T13:09:41;21.30;99.90
22771;DHT22;11552;50.786;4.332;2022-10-22T13:14:26;21.00;99.90
22771;DHT22;11552;50.786;4.332;2022-10-22T13:17:37;20.90;99.90
22771;DHT22;11552;50.786;4.332;2022-10-22T13:20:15;20.90;99.90
22771;DHT22;11552;50.786;4.332;2022-10-22T13:22:56;21.10;99.90
22771;DHT22;11552;50.786;4.332;2022-10-22T13:30:51;21.30;99.90
22771;DHT22;11552;50.786;4.332;2022-10-22T13:38:17;21.30;99.90
22771;DHT22;11552;50.786;4.332;2022-10-22T13:40:43;21.50;99.90
22771;DHT22;11552;50.786;4.332;2022-10-22T13:43:10;21.40;99.90
22771;DHT22;11552;50.786;4.332;2022-10-22T13:45:35;21.50;99.90
22771;DHT22;11552;50.786;4.332;2022-10-22T13:48:01;21.50;99.90
22771;DHT22;11552;50.786;4.332;2022-10-22T13:50:27;21.40;99.90
22771;DHT22;11552;50.786;4.332;2022-10-22T13:52:56;21.30;99.90
22771;DHT22;11552;50.786;4.332;2022-10-22T13:57:56;21.40;99.90
22771;DHT22;11552;50.786;4.332;2022-10-22T14:00:23;21.60;99.90
22771;DHT22;11552;50.786;4.332;2022-10-22T14:02:52;21.60;99.90
22771;DHT22;11552;50.786;4.332;2022-10-22T14:05:19;21.60;99.90
22771;DHT22;11552;50.786;4.332;2022-10-22T14:07:45;21.50;99.90
22771;DHT22;11552;50.786;4.332;2022-10-22T14:10:14;21.30;99.90
22771;DHT22;11552;50.786;4.332;2022-10-22T14:12:40;21.20;99.90
22771;DHT22;11552;50.786;4.332;2022-10-22T14:15:08;20.90;99.90
22771;DHT22;11552;50.786;4.332;2022-10-22T14:17:33;20.80;99.90
22771;DHT22;11552;50.786;4.332;2022-10-22T14:19:59;20.50;99.90
22771;DHT22;11552;50.786;4.332;2022-10-22T14:22:26;20.50;99.90
22771;DHT22;11552;50.786;4.332;2022-10-22T14:25:47;20.50;99.90
22771;DHT22;11552;50.786;4.332;2022-10-22T14:28:16;20.60;99.90
22771;DHT22;11552;50.786;4.332;2022-10-22T14:30:42;20.60;99.90
22771;DHT22;11552;50.786;4.332;2022-10-22T14:33:30;20.60;99.90
22771;DHT22;11552;50.786;4.332;2022-10-22T14:35:56;20.50;99.90
22771;DHT22;11552;50.786;4.332;2022-10-22T14:38:22;20.40;99.90
22771;DHT22;11552;50.786;4.332;2022-10-22T14:40:48;20.40;99.90
22771;DHT22;11552;50.786;4.332;2022-10-22T14:43:26;20.40;99.90
22771;DHT22;11552;50.786;4.332;2022-10-22T14:45:52;20.50;99.90
22771;DHT22;11552;50.786;4.332;2022-10-22T14:48:19;20.50;99.90
22771;DHT22;11552;50.786;4.332;2022-10-22T14:50:45;20.40;99.90
22771;DHT22;11552;50.786;4.332;2022-10-22T14:53:12;20.40;99.90
22771;DHT22;11552;50.786;4.332;2022-10-22T14:55:39;20.50;99.90
22771;DHT22;11552;50.786;4.332;2022-10-22T14:58:05;20.40;99.90
22771;DHT22;11552;50.786;4.332;2022-10-22T15:00:31;20.40;99.90
22771;DHT22;11552;50.786;4.332;2022-10-22T15:02:58;20.70;99.90
22771;DHT22;11552;50.786;4.332;2022-10-22T15:05:24;20.70;99.90
22771;DHT22;11552;50.786;4.332;2022-10-22T15:07:50;20.80;99.90
22771;DHT22;11552;50.786;4.332;2022-10-22T15:10:29;20.70;99.90
22771;DHT22;11552;50.786;4.332;2022-10-22T15:15:18;20.70;99.90
22771;DHT22;11552;50.786;4.332;2022-10-22T15:17:44;20.60;99.90
22771;DHT22;11552;50.786;4.332;2022-10-22T15:20:09;20.60;99.90
22771;DHT22;11552;50.786;4.332;2022-10-22T15:22:35;20.60;99.90
22771;DHT22;11552;50.786;4.332;2022-10-22T15:30:10;20.40;99.90
22771;DHT22;11552;50.786;4.332;2022-10-22T15:32:37;20.30;99.90
22771;DHT22;11552;50.786;4.332;2022-10-22T15:35:05;20.30;99.90
22771;DHT22;11552;50.786;4.332;2022-10-22T15:38:04;20.40;99.90
22771;DHT22;11552;50.786;4.332;2022-10-22T15:41:48;20.40;99.90
22771;DHT22;11552;50.786;4.332;2022-10-22T15:44:17;20.40;99.90
22771;DHT22;11552;50.786;4.332;2022-10-22T15:46:43;20.50;99.90
22771;DHT22;11552;50.786;4.332;2022-10-22T15:49:09;20.40;99.90
22771;DHT22;11552;50.786;4.332;2022-10-22T15:53:50;20.30;99.90
22771;DHT22;11552;50.786;4.332;2022-10-22T15:56:17;20.30;99.90
22771;DHT22;11552;50.786;4.332;2022-10-22T15:58:42;20.20;99.90
22771;DHT22;11552;50.786;4.332;2022-10-22T16:03:54;20.20;99.90
22771;DHT22;11552;50.786;4.332;2022-10-22T16:06:53;19.90;99.90
22771;DHT22;11552;50.786;4.332;2022-10-22T16:09:23;19.90;99.90
22771;DHT22;11552;50.786;4.332;2022-10-22T16:11:50;19.80;99.90
22771;DHT22;11552;50.786;4.332;2022-10-22T16:14:17;19.60;99.90
22771;DHT22;11552;50.786;4.332;2022-10-22T16:16:47;19.60;99.90
22771;DHT22;11552;50.786;4.332;2022-10-22T16:20:23;19.60;99.90
22771;DHT22;11552;50.786;4.332;2022-10-22T16:22:49;19.60;99.90
22771;DHT22;11552;50.786;4.332;2022-10-22T16:25:14;19.60;99.90
22771;DHT22;11552;50.786;4.332;2022-10-22T16:27:40;19.50;99.90
22771;DHT22;11552;50.786;4.332;2022-10-22T16:31:49;19.30;99.90
22771;DHT22;11552;50.786;4.332;2022-10-22T16:34:15;19.10;99.90
22771;DHT22;11552;50.786;4.332;2022-10-22T16:36:40;18.90;99.90
22771;DHT22;11552;50.786;4.332;2022-10-22T16:39:06;18.80;99.90
22771;DHT22;11552;50.786;4.332;2022-10-22T16:41:32;18.70;99.90
22771;DHT22;11552;50.786;4.332;2022-10-22T16:44:04;18.60;99.90
22771;DHT22;11552;50.786;4.332;2022-10-22T16:50:49;18.50;99.90
22771;DHT22;11552;50.786;4.332;2022-10-22T16:53:15;18.40;99.90
22771;DHT22;11552;50.786;4.332;2022-10-22T16:58:07;18.30;99.90
22771;DHT22;11552;50.786;4.332;2022-10-22T17:00:33;18.10;99.90
22771;DHT22;11552;50.786;4.332;2022-10-22T17:02:59;18.10;99.90
22771;DHT22;11552;50.786;4.332;2022-10-22T17:05:24;18.10;99.90
22771;DHT22;11552;50.786;4.332;2022-10-22T17:07:50;18.10;99.90
22771;DHT22;11552;50.786;4.332;2022-10-22T17:10:16;17.90;99.90
22771;DHT22;11552;50.786;4.332;2022-10-22T17:12:47;17.90;99.90
22771;DHT22;11552;50.786;4.332;2022-10-22T17:15:13;17.80;99.90
22771;DHT22;11552;50.786;4.332;2022-10-22T17:17:39;17.80;99.90
22771;DHT22;11552;50.786;4.332;2022-10-22T17:22:27;17.70;99.90
22771;DHT22;11552;50.786;4.332;2022-10-22T17:25:15;17.60;99.90
22771;DHT22;11552;50.786;4.332;2022-10-22T17:34:10;17.70;99.90
22771;DHT22;11552;50.786;4.332;2022-10-22T17:37:18;17.60;99.90
22771;DHT22;11552;50.786;4.332;2022-10-22T17:39:44;17.50;99.90
22771;DHT22;11552;50.786;4.332;2022-10-22T17:42:10;17.30;99.90
22771;DHT22;11552;50.786;4.332;2022-10-22T17:44:36;17.40;99.90
22771;DHT22;11552;50.786;4.332;2022-10-22T17:47:02;17.50;99.90
22771;DHT22;11552;50.786;4.332;2022-10-22T17:49:29;17.30;99.90
22771;DHT22;11552;50.786;4.332;2022-10-22T17:51:55;17.30;99.90
22771;DHT22;11552;50.786;4.332;2022-10-22T17:54:21;17.30;99.90
22771;DHT22;11552;50.786;4.332;2022-10-22T17:56:46;17.10;99.90
22771;DHT22;11552;50.786;4.332;2022-10-22T17:59:13;17.20;99.90
22771;DHT22;11552;50.786;4.332;2022-10-22T18:01:40;17.10;99.90
22771;DHT22;11552;50.786;4.332;2022-10-22T18:04:13;17.00;99.90
22771;DHT22;11552;50.786;4.332;2022-10-22T18:06:39;17.00;99.90
22771;DHT22;11552;50.786;4.332;2022-10-22T18:09:06;17.10;99.90
22771;DHT22;11552;50.786;4.332;2022-10-22T18:14:00;17.00;99.90
22771;DHT22;11552;50.786;4.332;2022-10-22T18:17:39;17.00;99.90
22771;DHT22;11552;50.786;4.332;2022-10-22T18:21:44;17.00;99.90
22771;DHT22;11552;50.786;4.332;2022-10-22T18:24:12;17.00;99.90
22771;DHT22;11552;50.786;4.332;2022-10-22T18:26:38;16.90;99.90
22771;DHT22;11552;50.786;4.332;2022-10-22T18:30:54;16.90;99.90
22771;DHT22;11552;50.786;4.332;2022-10-22T18:33:19;16.80;99.90
22771;DHT22;11552;50.786;4.332;2022-10-22T18:35:49;16.70;99.90
22771;DHT22;11552;50.786;4.332;2022-10-22T18:41:30;16.80;99.90
22771;DHT22;11552;50.786;4.332;2022-10-22T18:44:03;16.70;99.90
22771;DHT22;11552;50.786;4.332;2022-10-22T18:48:46;16.60;99.90
22771;DHT22;11552;50.786;4.332;2022-10-22T18:51:13;16.70;99.90
22771;DHT22;11552;50.786;4.332;2022-10-22T18:53:39;16.70;99.90
22771;DHT22;11552;50.786;4.332;2022-10-22T18:56:06;16.70;99.90
22771;DHT22;11552;50.786;4.332;2022-10-22T18:58:40;16.70;99.90
22771;DHT22;11552;50.786;4.332;2022-10-22T19:01:20;16.80;99.90
22771;DHT22;11552;50.786;4.332;2022-10-22T19:03:47;16.80;99.90
22771;DHT22;11552;50.786;4.332;2022-10-22T19:06:14;16.80;99.90
22771;DHT22;11552;50.786;4.332;2022-10-22T19:08:40;16.80;99.90
22771;DHT22;11552;50.786;4.332;2022-10-22T19:11:11;16.90;99.90
22771;DHT22;11552;50.786;4.332;2022-10-22T19:13:38;16.80;99.90
22771;DHT22;11552;50.786;4.332;2022-10-22T19:16:21;16.80;99.90
22771;DHT22;11552;50.786;4.332;2022-10-22T19:18:49;16.80;99.90
22771;DHT22;11552;50.786;4.332;2022-10-22T19:21:15;16.80;99.90
22771;DHT22;11552;50.786;4.332;2022-10-22T19:23:41;16.90;99.90
22771;DHT22;11552;50.786;4.332;2022-10-22T19:26:13;16.70;99.90
22771;DHT22;11552;50.786;4.332;2022-10-22T19:28:40;16.80;99.90